createdAt,value
2022-09-28T00:02:56.319Z,89.10
2022-09-28T00:13:56.561Z,89.40
2022-09-28T00:19:24.343Z,89.70
2022-09-28T00:24:52.095Z,90.00
2022-09-28T00:35:55.552Z,89.70
2022-09-28T00:41:25.469Z,89.80
2022-09-28T00:47:42.969Z,89.60
2022-09-28T00:53:24.347Z,89.70
2022-09-28T00:58:54.746Z,89.90
2022-09-28T01:04:27.972Z,89.90
2022-09-28T01:15:28.950Z,90.00
2022-09-28T01:21:10.460Z,90.00
2022-09-28T01:27:03.165Z,90.00
2022-09-28T01:32:59.660Z,89.90
2022-09-28T01:38:34.933Z,90.00
2022-09-28T01:44:06.264Z,89.90
2022-09-28T01:49:41.043Z,90.30
2022-09-28T02:00:48.765Z,89.80
2022-09-28T02:06:34.186Z,89.80
2022-09-28T02:12:12.381Z,89.70
2022-09-28T02:23:10.565Z,89.60
2022-09-28T02:34:07.239Z,89.40
2022-09-28T02:39:35.184Z,89.50
2022-09-28T02:45:41.631Z,89.40
2022-09-28T02:51:24.987Z,89.40
2022-09-28T02:57:11.537Z,89.50
2022-09-28T03:03:14.648Z,89.60
2022-09-28T03:08:57.845Z,89.40
2022-09-28T03:14:28.542Z,89.00
2022-09-28T03:19:58.381Z,89.70
2022-09-28T03:30:55.198Z,89.10
2022-09-28T03:36:23.726Z,88.90
2022-09-28T03:41:52.118Z,88.90
2022-09-28T03:47:21.683Z,88.80
2022-09-28T03:52:49.557Z,88.60
2022-09-28T03:58:18.082Z,88.50
2022-09-28T04:03:46.845Z,88.70
2022-09-28T04:09:14.956Z,88.50
2022-09-28T04:14:43.455Z,88.40
2022-09-28T04:20:11.442Z,88.30
2022-09-28T04:25:52.368Z,88.40
2022-09-28T04:31:23.336Z,88.40
2022-09-28T04:42:19.916Z,88.30
2022-09-28T04:47:50.048Z,88.20
2022-09-28T04:53:31.016Z,88.90
2022-09-28T04:58:59.669Z,88.20
2022-09-28T05:04:28.468Z,88.30
2022-09-28T05:10:34.868Z,88.40
2022-09-28T05:16:05.356Z,88.40
2022-09-28T05:32:35.284Z,88.70
2022-09-28T05:38:21.226Z,88.80
2022-09-28T05:43:51.502Z,88.90
2022-09-28T05:49:19.942Z,88.80
2022-09-28T05:54:48.933Z,88.80
2022-09-28T06:00:17.142Z,89.10
2022-09-28T06:05:52.761Z,89.00
2022-09-28T06:11:20.692Z,89.20
2022-09-28T06:16:48.651Z,89.20
2022-09-28T06:28:10.863Z,89.40
2022-09-28T06:33:42.117Z,89.80
2022-09-28T06:39:10.450Z,89.70
2022-09-28T06:44:38.861Z,89.70
2022-09-28T06:50:32.475Z,89.80
2022-09-28T06:56:14.534Z,89.80
2022-09-28T07:01:42.402Z,90.00
2022-09-28T07:07:44.810Z,90.00
2022-09-28T07:13:49.182Z,90.00
2022-09-28T07:19:16.729Z,90.10
2022-09-28T07:24:45.437Z,90.10
2022-09-28T07:30:36.269Z,90.10
2022-09-28T07:36:35.112Z,90.20
2022-09-28T07:42:03.504Z,90.40
2022-09-28T07:47:35.120Z,90.20
2022-09-28T07:53:26.469Z,90.30
2022-09-28T07:59:23.910Z,90.40
2022-09-28T08:05:08.034Z,90.40
2022-09-28T08:10:37.942Z,90.50
2022-09-28T08:16:47.561Z,90.80
2022-09-28T08:22:34.003Z,90.60
2022-09-28T08:28:02.928Z,90.70
2022-09-28T08:33:34.994Z,90.90
2022-09-28T08:39:21.655Z,90.90
2022-09-28T08:45:28.596Z,90.90
2022-09-28T08:51:26.811Z,91.00
2022-09-28T08:57:38.681Z,91.00
2022-09-28T09:03:13.320Z,91.10
2022-09-28T09:09:13.426Z,91.20
2022-09-28T09:15:19.901Z,91.30
2022-09-28T09:20:56.898Z,91.30
2022-09-28T09:26:40.636Z,91.40
2022-09-28T09:32:44.253Z,91.80
2022-09-28T09:38:31.045Z,91.70
2022-09-28T09:44:47.291Z,91.60
2022-09-28T09:50:55.372Z,91.50
2022-09-28T09:56:53.460Z,91.40
2022-09-28T10:03:00.630Z,91.60
2022-09-28T10:08:49.387Z,91.40
2022-09-28T10:14:24.088Z,91.70
2022-09-28T10:20:14.730Z,91.60
2022-09-28T10:26:25.216Z,91.70
2022-09-28T10:31:55.662Z,91.60
2022-09-28T10:37:26.186Z,91.60
2022-09-28T10:43:35.534Z,91.60
2022-09-28T10:49:17.219Z,91.50
2022-09-28T10:54:54.315Z,91.60
2022-09-28T11:00:50.335Z,91.70
2022-09-28T11:06:36.274Z,91.60
2022-09-28T11:12:06.950Z,91.70
2022-09-28T11:17:40.551Z,91.70
2022-09-28T11:23:22.506Z,91.70
2022-09-28T11:34:57.905Z,91.80
2022-09-28T11:40:50.685Z,91.90
2022-09-28T11:46:31.362Z,92.00
2022-09-28T11:52:21.443Z,91.90
2022-09-28T11:58:09.902Z,91.80
2022-09-28T12:03:48.698Z,91.90
2022-09-28T12:09:30.638Z,91.90
2022-09-28T12:16:23.452Z,92.00
2022-09-28T12:21:53.408Z,91.90
2022-09-28T12:27:40.525Z,91.40
2022-09-28T12:33:16.012Z,91.30
2022-09-28T12:39:18.017Z,91.50
2022-09-28T12:44:55.929Z,91.40
2022-09-28T12:50:57.761Z,91.70
2022-09-28T12:56:58.112Z,91.70
2022-09-28T13:02:58.364Z,91.50
2022-09-28T13:09:03.702Z,91.40
2022-09-28T13:15:00.851Z,91.40
2022-09-28T13:20:44.067Z,91.60
2022-09-28T13:26:32.984Z,92.10
2022-09-28T13:32:03.534Z,92.10
2022-09-28T13:37:31.529Z,92.00
2022-09-28T13:43:19.602Z,91.90
2022-09-28T13:49:39.913Z,91.90
2022-09-28T13:55:23.580Z,91.70
2022-09-28T14:01:08.321Z,91.90
2022-09-28T14:06:36.207Z,91.70
2022-09-28T14:12:28.293Z,91.60
2022-09-28T14:18:25.511Z,91.60
2022-09-28T14:24:39.447Z,91.60
2022-09-28T14:30:18.862Z,91.50
2022-09-28T14:36:36.583Z,91.50
2022-09-28T14:42:30.989Z,91.50
2022-09-28T14:48:48.307Z,91.40
2022-09-28T14:54:54.549Z,91.30
2022-09-28T15:00:26.257Z,91.30
2022-09-28T15:05:54.419Z,91.50
2022-09-28T15:11:26.688Z,91.20
2022-09-28T15:16:55.389Z,91.10
2022-09-28T15:28:13.141Z,91.10
2022-09-28T15:34:00.235Z,91.40
2022-09-28T15:39:34.206Z,91.40
2022-09-28T15:45:40.024Z,91.10
2022-09-28T15:51:11.894Z,91.20
2022-09-28T15:56:59.975Z,91.10
2022-09-28T16:02:32.856Z,91.20
2022-09-28T16:08:08.829Z,91.20
2022-09-28T16:14:10.787Z,91.20
2022-09-28T16:19:39.686Z,91.30
2022-09-28T16:25:19.627Z,91.30
2022-09-28T16:31:29.352Z,91.40
2022-09-28T16:36:57.574Z,91.50
2022-09-28T16:42:27.688Z,91.50
2022-09-28T16:47:59.045Z,91.60
2022-09-28T16:59:17.334Z,91.60
2022-09-28T17:04:47.729Z,91.60
2022-09-28T17:11:12.905Z,91.70
2022-09-28T17:17:06.238Z,91.60
2022-09-28T17:27:56.277Z,91.80
2022-09-28T17:33:24.512Z,91.80
2022-09-28T17:38:52.804Z,91.90
2022-09-28T17:44:21.080Z,91.90
2022-09-28T17:49:49.927Z,92.00
2022-09-28T18:00:53.843Z,92.00
2022-09-28T18:12:03.608Z,92.20
2022-09-28T18:17:31.400Z,92.20
2022-09-28T18:22:59.392Z,92.20
2022-09-28T18:28:27.273Z,92.30
2022-09-28T18:34:02.854Z,92.40
2022-09-28T18:39:30.879Z,92.30
2022-09-28T18:44:58.699Z,92.50
2022-09-28T18:50:27.331Z,92.50
2022-09-28T19:01:30.134Z,92.50
2022-09-28T19:06:58.936Z,92.50
2022-09-28T19:17:55.178Z,92.50
2022-09-28T19:28:58.384Z,92.50
2022-09-28T19:51:06.935Z,92.40
2022-09-28T20:02:09.303Z,92.60
2022-09-28T20:07:40.312Z,92.60
2022-09-28T20:18:47.355Z,92.90
2022-09-28T20:24:17.883Z,92.90
2022-09-28T20:29:49.321Z,92.90
2022-09-28T20:35:32.259Z,93.10
2022-09-28T20:41:02.740Z,93.10
2022-09-28T20:46:30.890Z,93.10
2022-09-28T20:52:06.432Z,93.20
2022-09-28T20:57:37.466Z,93.20
2022-09-28T21:08:48.390Z,93.20
2022-09-28T21:25:18.190Z,93.20
2022-09-28T21:41:42.708Z,93.30
2022-09-28T21:47:11.309Z,93.30
2022-09-28T21:52:39.521Z,93.30
2022-09-28T21:58:07.361Z,93.30
2022-09-28T22:03:36.961Z,93.40
2022-09-28T22:09:05.494Z,93.30
2022-09-28T22:25:30.673Z,93.40
2022-09-28T22:36:27.066Z,93.40
2022-09-28T22:41:55.003Z,93.40
2022-09-28T22:47:23.249Z,93.40
2022-09-28T23:03:51.142Z,93.50
2022-09-28T23:09:19.258Z,93.50
2022-09-28T23:14:47.260Z,93.50
2022-09-28T23:31:33.149Z,93.60
2022-09-28T23:47:57.453Z,93.60
